EDDH/HAM METAR and TAF weather

Enter ICAO airport designator
Station Type Date Time Source
EDDH METAR 2019/12/05 22:50 UTC NOAA

EDDH 052250Z 22016KT 8000 FEW007 BKN012 03/00 Q1010 TEMPO 21015G25KT BKN008


Station Type Date Time Source
EDDH Decoded METAR 2019/12/05 22:50 UTC NOAA

Hamburg-Fuhlsbuettel, Germany (EDDH) 53-38N 010-00E 15M
Dec 05, 2019 - 05:50 PM EST / 2019.12.05 2250 UTC
Wind: from the SW (220 degrees) at 18 MPH (16 KT):0
Visibility: 4 mile(s):0
Sky conditions: mostly cloudy
Temperature: 37 F (3 C)
Dew Point: 32 F (0 C)
Relative Humidity: 80%
Pressure (altimeter): 29.83 in. Hg (1010 hPa)
ob: EDDH 052250Z 22016KT 8000 FEW007 BKN012 03/00 Q1010 TEMPO 21015G25KT BKN008
cycle: 23

Station Type Date Time Source
EDDH TAF 2019/12/05 18:27 UTC NOAA

TAF EDDH 051700Z 0518/0624 22013KT 9000 BKN008 PROB40
TEMPO 0518/0521 22015G25KT 3500 BR BKN004
BECMG 0521/0523 22015G25KT
BECMG 0600/0603 BKN012
TEMPO 0603/0624 22020G30KT 3500 RADZ BKN007

Example: see airport list